createdAt,value
2023-02-14T12:09:47.888Z,52.60
2023-02-14T12:12:26.532Z,53.30
2023-02-14T12:15:38.113Z,54.00
2023-02-14T12:18:42.422Z,54.40
2023-02-14T12:21:44.167Z,54.20
2023-02-14T12:24:37.113Z,54.50
2023-02-14T12:30:35.848Z,54.80
2023-02-14T12:33:18.755Z,54.90
2023-02-14T12:35:59.812Z,54.80
2023-02-14T12:38:44.319Z,55.20
2023-02-14T12:41:29.464Z,55.20
2023-02-14T12:44:29.865Z,55.30
2023-02-14T12:47:47.973Z,55.40
2023-02-14T12:50:31.345Z,55.40
2023-02-14T12:53:37.144Z,55.50
2023-02-14T12:56:50.092Z,55.90
2023-02-14T12:59:54.747Z,55.70
2023-02-14T13:02:52.694Z,56.00
2023-02-14T13:05:54.806Z,55.60
2023-02-14T13:08:24.932Z,55.40
2023-02-14T13:11:18.085Z,55.50
2023-02-14T13:14:14.355Z,55.50
2023-02-14T13:17:16.062Z,55.60
2023-02-14T13:20:25.574Z,55.70
2023-02-14T13:22:55.067Z,55.70
2023-02-14T13:25:37.540Z,55.80
2023-02-14T13:28:10.218Z,55.70
2023-02-14T13:30:45.339Z,55.80
2023-02-14T13:33:33.526Z,55.80
2023-02-14T13:36:10.089Z,56.00
2023-02-14T13:38:49.747Z,55.70
2023-02-14T13:41:23.973Z,56.00
2023-02-14T13:43:57.476Z,56.00
2023-02-14T13:46:38.580Z,56.10
2023-02-14T13:49:31.719Z,56.20
2023-02-14T13:52:03.802Z,56.00
2023-02-14T13:54:45.362Z,56.10
2023-02-14T13:57:49.044Z,56.30
2023-02-14T14:00:35.194Z,56.40
2023-02-14T14:03:07.574Z,56.40
2023-02-14T14:05:57.570Z,56.40
2023-02-14T14:08:38.870Z,56.50
2023-02-14T14:11:30.307Z,56.70
2023-02-14T14:14:21.444Z,57.00
2023-02-14T14:17:01.075Z,56.60
2023-02-14T14:19:42.184Z,56.70
2023-02-14T14:22:18.502Z,57.40
2023-02-14T14:25:08.828Z,56.80
2023-02-14T14:27:46.322Z,56.80
2023-02-14T14:30:36.016Z,57.00
2023-02-14T14:33:28.463Z,56.80
2023-02-14T14:36:11.853Z,56.90
2023-02-14T14:38:51.433Z,56.80
2023-02-14T14:41:20.750Z,56.90
2023-02-14T14:43:52.671Z,57.00
2023-02-14T14:46:19.644Z,56.70
2023-02-14T14:48:53.192Z,56.80
2023-02-14T14:51:31.909Z,56.80
2023-02-14T14:54:15.756Z,56.70
2023-02-14T14:57:02.119Z,56.60
2023-02-14T14:59:40.036Z,56.70
2023-02-14T15:02:29.638Z,56.90
2023-02-14T15:04:57.576Z,56.90
2023-02-14T15:07:43.420Z,56.90
2023-02-14T15:10:28.001Z,56.90
2023-02-14T15:13:18.791Z,57.00
2023-02-14T15:15:54.375Z,56.90
2023-02-14T15:18:25.050Z,56.80
2023-02-14T15:20:54.229Z,56.90
2023-02-14T15:23:27.949Z,56.90
2023-02-14T15:26:03.122Z,56.60
2023-02-14T15:28:38.141Z,56.70
2023-02-14T15:31:12.266Z,56.90
2023-02-14T15:33:43.099Z,57.00
2023-02-14T15:36:20.410Z,57.10
2023-02-14T15:38:50.780Z,57.00
2023-02-14T15:41:23.708Z,57.00
2023-02-14T15:44:00.117Z,56.80
2023-02-14T15:46:42.686Z,57.00
2023-02-14T15:49:18.298Z,56.90
2023-02-14T15:52:00.709Z,57.00
2023-02-14T15:54:47.888Z,56.90
2023-02-14T15:57:24.996Z,56.70
2023-02-14T15:59:55.349Z,56.90
2023-02-14T16:05:34.721Z,57.00
2023-02-14T16:08:16.030Z,57.10
2023-02-14T16:11:18.785Z,56.90
2023-02-14T16:13:50.754Z,56.90
2023-02-14T16:16:22.364Z,57.20
2023-02-14T16:18:57.322Z,56.90
2023-02-14T16:21:32.375Z,56.80
2023-02-14T16:24:16.028Z,57.00
2023-02-14T16:26:48.125Z,56.70
2023-02-14T16:29:18.519Z,56.80
2023-02-14T16:32:21.821Z,56.90
2023-02-14T16:34:40.209Z,57.20
2023-02-14T16:37:24.004Z,55.30
2023-02-14T16:40:00.085Z,54.00
2023-02-14T16:42:30.951Z,55.00
2023-02-14T16:45:01.589Z,55.90
2023-02-14T16:47:32.043Z,56.40
2023-02-14T16:50:03.437Z,56.20
2023-02-14T16:52:33.982Z,57.00
2023-02-14T16:55:08.550Z,57.20
2023-02-14T16:57:48.971Z,57.40
2023-02-14T17:03:13.665Z,57.90
2023-02-14T17:05:45.831Z,58.10
2023-02-14T17:08:17.560Z,58.10
2023-02-14T17:10:51.109Z,58.40
2023-02-14T17:13:24.132Z,58.30
2023-02-14T17:15:59.053Z,58.50
2023-02-14T17:18:28.897Z,58.50
2023-02-14T17:21:02.722Z,58.60
2023-02-14T17:23:33.462Z,59.20
2023-02-14T17:26:06.274Z,58.60
2023-02-14T17:28:38.260Z,59.00
2023-02-14T17:31:08.923Z,59.00
2023-02-14T17:33:42.239Z,59.10
2023-02-14T17:36:16.510Z,59.30
2023-02-14T17:38:45.510Z,59.40
2023-02-14T17:41:25.277Z,59.40
2023-02-14T17:44:02.603Z,59.00
2023-02-14T17:46:32.348Z,59.60
2023-02-14T17:49:07.915Z,59.80
2023-02-14T17:51:40.652Z,59.70
2023-02-14T17:54:10.647Z,59.80
2023-02-14T17:56:43.474Z,59.70
2023-02-14T17:59:10.695Z,59.80
2023-02-14T18:01:39.506Z,60.00
2023-02-14T18:04:10.978Z,59.80
2023-02-14T18:06:48.543Z,59.80
2023-02-14T18:09:17.410Z,59.80
2023-02-14T18:11:55.352Z,60.00
2023-02-14T18:14:23.430Z,60.00
2023-02-14T18:16:53.891Z,60.00
2023-02-14T18:19:26.842Z,60.00
2023-02-14T18:21:55.951Z,60.00
2023-02-14T18:24:26.473Z,59.90
2023-02-14T18:26:58.340Z,59.80
2023-02-14T18:29:28.807Z,59.80
2023-02-14T18:31:59.609Z,59.90
2023-02-14T18:34:31.011Z,59.90
2023-02-14T18:37:03.802Z,59.90
2023-02-14T18:39:33.510Z,59.80
2023-02-14T18:42:05.787Z,59.80
2023-02-14T18:44:38.433Z,59.90
2023-02-14T18:47:10.763Z,59.90
2023-02-14T18:49:39.967Z,60.00
2023-02-14T18:52:15.008Z,59.90
2023-02-14T18:54:44.626Z,60.00
2023-02-14T18:57:13.688Z,59.90
2023-02-14T18:59:47.269Z,60.00
2023-02-14T19:02:17.038Z,60.00
2023-02-14T19:04:47.730Z,60.50
2023-02-14T19:07:18.244Z,59.90
2023-02-14T19:09:48.551Z,59.90
2023-02-14T19:12:18.964Z,59.90
2023-02-14T19:14:49.810Z,59.90
2023-02-14T19:17:20.637Z,59.90
2023-02-14T19:19:58.032Z,59.80
2023-02-14T19:22:28.246Z,59.80
2023-02-14T19:24:59.587Z,59.80
2023-02-14T19:27:27.863Z,59.80
2023-02-14T19:29:56.111Z,59.70
2023-02-14T19:32:26.530Z,59.70
2023-02-14T19:34:57.471Z,59.70
2023-02-14T19:37:32.384Z,59.60
2023-02-14T19:40:03.993Z,59.60
2023-02-14T19:42:32.717Z,59.60
2023-02-14T19:45:02.869Z,59.70
2023-02-14T19:47:46.239Z,59.50
2023-02-14T19:50:18.016Z,59.50
2023-02-14T19:52:48.770Z,59.50
2023-02-14T19:55:25.620Z,59.60
2023-02-14T19:57:57.801Z,59.50
2023-02-14T20:00:25.974Z,59.70
2023-02-14T20:02:54.328Z,59.80
2023-02-14T20:05:26.339Z,60.00
2023-02-14T20:07:55.422Z,59.80
2023-02-14T20:10:27.956Z,59.80
2023-02-14T20:12:56.335Z,59.80
2023-02-14T20:15:28.747Z,59.80
2023-02-14T20:18:00.171Z,59.70
2023-02-14T20:20:29.165Z,59.70
2023-02-14T20:22:58.976Z,59.70
2023-02-14T20:25:30.788Z,59.60
2023-02-14T20:28:04.918Z,59.60
2023-02-14T20:30:34.976Z,59.60
2023-02-14T20:33:07.238Z,59.60
2023-02-14T20:35:42.464Z,59.60
2023-02-14T20:38:12.552Z,59.60
2023-02-14T20:40:42.910Z,59.60
2023-02-14T20:43:13.539Z,59.60
2023-02-14T20:45:42.413Z,59.70
2023-02-14T20:48:12.874Z,59.70
2023-02-14T20:50:55.262Z,59.70
2023-02-14T20:53:25.542Z,59.60
2023-02-14T20:55:57.546Z,59.70
2023-02-14T20:58:33.088Z,59.70
2023-02-14T21:01:23.201Z,59.60
2023-02-14T21:03:59.527Z,59.60
2023-02-14T21:06:34.065Z,59.60
2023-02-14T21:09:04.626Z,59.60
2023-02-14T21:11:35.007Z,59.70
2023-02-14T21:14:06.086Z,59.60
2023-02-14T21:16:33.191Z,59.60
2023-02-14T21:19:03.560Z,59.50
2023-02-14T21:21:38.697Z,59.50
2023-02-14T21:24:10.776Z,59.50
2023-02-14T21:26:39.440Z,59.50
2023-02-14T21:29:09.711Z,59.40
2023-02-14T21:31:43.270Z,59.50
2023-02-14T21:34:14.300Z,59.40
2023-02-14T21:36:47.321Z,59.50
2023-02-14T21:39:17.376Z,59.50
2023-02-14T21:41:47.650Z,59.70
2023-02-14T21:44:36.590Z,59.40
2023-02-14T21:47:07.375Z,59.50
2023-02-14T21:49:53.677Z,59.70
2023-02-14T21:52:24.763Z,59.20
2023-02-14T21:54:55.305Z,58.70
2023-02-14T21:57:24.021Z,58.60
2023-02-14T21:59:54.440Z,58.60
2023-02-14T22:02:22.496Z,57.70
2023-02-14T22:04:51.883Z,57.40
2023-02-14T22:07:21.717Z,57.10
2023-02-14T22:09:51.906Z,56.80
2023-02-14T22:12:21.740Z,56.50
2023-02-14T22:14:51.329Z,56.40
2023-02-14T22:19:48.972Z,55.60
2023-02-14T22:22:17.816Z,56.20
2023-02-14T22:24:49.559Z,55.80
2023-02-14T22:27:19.473Z,55.30
2023-02-14T22:29:47.759Z,55.50
2023-02-14T22:32:22.584Z,55.60
2023-02-14T22:34:51.722Z,55.50
2023-02-14T22:37:21.467Z,55.50
2023-02-14T22:39:53.246Z,55.50
2023-02-14T22:42:25.142Z,55.40
2023-02-14T22:45:08.288Z,55.40
2023-02-14T22:47:37.494Z,55.40
2023-02-14T22:50:04.687Z,55.40
2023-02-14T22:52:35.007Z,55.50
2023-02-14T22:55:06.015Z,55.50
2023-02-14T22:57:36.786Z,55.50
2023-02-14T23:00:04.978Z,55.50
2023-02-14T23:02:34.500Z,55.60
2023-02-14T23:05:05.178Z,55.60
2023-02-14T23:07:33.253Z,55.90
2023-02-14T23:10:04.717Z,56.00
2023-02-14T23:12:55.304Z,56.10
2023-02-14T23:15:43.554Z,56.20
2023-02-14T23:18:33.088Z,56.20
2023-02-14T23:21:20.658Z,56.30
2023-02-14T23:23:53.115Z,56.50
2023-02-14T23:26:23.463Z,56.50
2023-02-14T23:28:52.555Z,56.60
2023-02-14T23:31:21.676Z,56.70
2023-02-14T23:33:57.208Z,56.80
2023-02-14T23:36:28.648Z,56.80
2023-02-14T23:39:05.399Z,56.90
2023-02-14T23:41:52.318Z,57.00
2023-02-14T23:44:24.244Z,57.00
2023-02-14T23:46:53.678Z,57.10
2023-02-14T23:49:21.830Z,57.20
2023-02-14T23:51:53.632Z,57.20
2023-02-14T23:54:25.416Z,57.30
2023-02-14T23:57:00.995Z,57.40
2023-02-14T23:59:32.561Z,57.50
